createdAt,value
2022-11-26T00:01:19.125Z,121.80
2022-11-26T00:03:43.005Z,143.23
2022-11-26T00:06:07.207Z,101.20
2022-11-26T00:08:35.276Z,119.53
2022-11-26T00:10:59.026Z,111.20
2022-11-26T00:13:25.114Z,93.97
2022-11-26T00:15:50.082Z,110.82
2022-11-26T00:18:15.060Z,121.75
2022-11-26T00:20:38.649Z,115.63
2022-11-26T00:23:04.483Z,111.75
2022-11-26T00:25:32.567Z,121.40
2022-11-26T00:27:59.160Z,105.43
2022-11-26T00:30:26.239Z,106.07
2022-11-26T00:32:50.197Z,132.50
2022-11-26T00:35:15.848Z,115.93
2022-11-26T00:37:43.133Z,119.80
2022-11-26T00:40:08.930Z,108.47
2022-11-26T00:42:32.514Z,144.27
2022-11-26T00:44:56.271Z,135.15
2022-11-26T00:47:19.789Z,121.88
2022-11-26T00:49:43.371Z,118.85
2022-11-26T00:52:26.424Z,122.72
2022-11-26T00:54:50.066Z,140.07
2022-11-26T00:57:13.566Z,141.07
2022-11-26T00:59:37.171Z,138.57
2022-11-26T01:02:00.813Z,160.00
2022-11-26T01:04:24.444Z,125.30
2022-11-26T01:06:48.290Z,162.80
2022-11-26T01:09:19.599Z,126.40
2022-11-26T01:11:43.163Z,145.20
2022-11-26T01:14:11.739Z,134.00
2022-11-26T01:16:42.205Z,164.82
2022-11-26T01:19:07.380Z,163.43
2022-11-26T01:21:33.506Z,141.77
2022-11-26T01:23:57.225Z,146.73
2022-11-26T01:26:25.330Z,145.55
2022-11-26T01:28:49.379Z,151.25
2022-11-26T01:31:18.484Z,140.88
2022-11-26T01:33:42.170Z,114.55
2022-11-26T01:36:10.462Z,153.95
2022-11-26T01:38:34.008Z,148.75
2022-11-26T01:41:12.524Z,148.48
2022-11-26T01:43:42.139Z,138.63
2022-11-26T01:46:14.949Z,150.88
2022-11-26T01:48:39.383Z,173.60
2022-11-26T01:51:06.421Z,150.93
2022-11-26T01:53:53.955Z,202.80
2022-11-26T01:56:35.982Z,183.55
2022-11-26T01:59:09.650Z,169.50
2022-11-26T02:01:34.049Z,166.35
2022-11-26T02:04:06.933Z,178.23
2022-11-26T02:06:34.075Z,172.73
2022-11-26T02:09:00.497Z,170.13
2022-11-26T02:11:25.838Z,158.90
2022-11-26T02:13:52.827Z,188.73
2022-11-26T02:16:31.614Z,169.50
2022-11-26T02:19:11.961Z,161.73
2022-11-26T02:21:39.725Z,157.90
2022-11-26T02:24:37.138Z,197.05
2022-11-26T02:27:53.518Z,185.43
2022-11-26T02:30:19.470Z,167.02
2022-11-26T02:32:57.539Z,199.10
2022-11-26T02:35:27.898Z,182.55
2022-11-26T02:37:56.911Z,180.63
2022-11-26T02:40:20.615Z,226.35
2022-11-26T02:42:44.236Z,227.10
2022-11-26T02:45:12.663Z,269.55
2022-11-26T02:47:41.292Z,256.70
2022-11-26T02:50:11.789Z,286.63
2022-11-26T02:52:36.759Z,309.10
2022-11-26T02:55:01.338Z,203.70
2022-11-26T02:57:27.740Z,319.85
2022-11-26T02:59:51.320Z,233.52
2022-11-26T03:02:21.259Z,220.90
2022-11-26T03:04:50.338Z,223.38
2022-11-26T03:07:15.356Z,155.57
2022-11-26T03:09:43.743Z,209.65
2022-11-26T03:12:08.352Z,170.25
2022-11-26T03:14:31.936Z,222.48
2022-11-26T03:16:55.553Z,204.43
2022-11-26T03:19:19.089Z,169.18
2022-11-26T03:21:44.073Z,220.00
2022-11-26T03:24:08.325Z,211.77
2022-11-26T03:26:31.887Z,246.32
2022-11-26T03:28:55.420Z,201.57
2022-11-26T03:31:19.103Z,206.88
2022-11-26T03:33:42.704Z,222.57
2022-11-26T03:36:06.748Z,204.10
2022-11-26T03:38:31.725Z,246.48
2022-11-26T03:40:59.316Z,261.58
2022-11-26T03:43:22.799Z,235.25
2022-11-26T03:45:46.467Z,252.98
2022-11-26T03:48:09.975Z,340.83
2022-11-26T03:50:33.571Z,284.08
2022-11-26T03:52:57.106Z,284.73
2022-11-26T03:55:22.069Z,243.90
2022-11-26T03:57:45.699Z,275.23
2022-11-26T04:00:10.754Z,298.55
2022-11-26T04:02:34.520Z,293.13
2022-11-26T04:04:58.293Z,312.38
2022-11-26T04:07:21.804Z,293.63
2022-11-26T04:09:45.614Z,253.40
2022-11-26T04:12:10.565Z,265.05
2022-11-26T04:14:34.165Z,252.10
2022-11-26T04:16:57.844Z,302.88
2022-11-26T04:19:21.477Z,263.73
2022-11-26T04:21:45.019Z,257.55
2022-11-26T04:24:09.703Z,271.63
2022-11-26T04:26:33.226Z,267.05
2022-11-26T04:28:58.176Z,282.77
2022-11-26T04:31:22.064Z,254.10
2022-11-26T04:33:45.776Z,277.10
2022-11-26T04:36:10.167Z,260.70
2022-11-26T04:38:33.755Z,246.25
2022-11-26T04:40:57.351Z,207.45
2022-11-26T04:43:20.946Z,202.18
2022-11-26T04:45:45.909Z,204.82
2022-11-26T04:48:09.551Z,158.45
2022-11-26T04:50:33.364Z,166.32
2022-11-26T04:52:56.973Z,187.27
2022-11-26T04:55:20.692Z,178.00
2022-11-26T04:57:44.655Z,160.15
2022-11-26T05:00:10.551Z,200.73
2022-11-26T05:02:35.666Z,164.57
2022-11-26T05:04:59.235Z,182.13
2022-11-26T05:07:22.894Z,149.13
2022-11-26T05:09:46.495Z,160.18
2022-11-26T05:12:11.266Z,155.45
2022-11-26T05:14:34.917Z,162.00
2022-11-26T05:16:58.589Z,141.35
2022-11-26T05:19:23.528Z,148.55
2022-11-26T05:21:47.133Z,152.38
2022-11-26T05:24:10.932Z,166.00
2022-11-26T05:26:34.517Z,120.30
2022-11-26T05:28:58.048Z,142.68
2022-11-26T05:31:21.807Z,132.82
2022-11-26T05:33:45.330Z,108.00
2022-11-26T05:36:10.734Z,108.05
2022-11-26T05:38:34.334Z,121.25
2022-11-26T05:40:58.044Z,96.28
2022-11-26T05:43:21.587Z,94.47
2022-11-26T05:45:45.225Z,116.70
2022-11-26T05:48:08.791Z,120.72
2022-11-26T05:50:33.684Z,104.70
2022-11-26T05:52:58.567Z,101.82
2022-11-26T05:55:22.248Z,100.93
2022-11-26T05:57:45.922Z,123.70
2022-11-26T06:00:11.614Z,105.82
2022-11-26T06:02:35.266Z,116.80
2022-11-26T06:04:58.938Z,107.00
2022-11-26T06:07:22.540Z,102.30
2022-11-26T06:09:47.542Z,125.40
2022-11-26T06:12:11.067Z,118.35
2022-11-26T06:14:36.414Z,104.20
2022-11-26T06:17:02.704Z,97.18
2022-11-26T06:19:26.552Z,109.85
2022-11-26T06:21:50.067Z,105.80
2022-11-26T06:24:13.852Z,99.40
2022-11-26T06:26:38.796Z,91.90
2022-11-26T06:29:02.367Z,89.75
2022-11-26T06:31:25.997Z,95.93
2022-11-26T06:33:49.637Z,104.30
2022-11-26T06:36:15.595Z,95.03
2022-11-26T06:38:39.296Z,100.35
2022-11-26T06:41:05.950Z,110.63
2022-11-26T06:43:31.551Z,104.13
2022-11-26T06:45:55.702Z,103.07
2022-11-26T06:48:19.345Z,92.38
2022-11-26T06:50:42.911Z,93.15
2022-11-26T06:53:06.509Z,95.53
2022-11-26T06:55:30.072Z,96.93
2022-11-26T06:57:54.204Z,100.63
2022-11-26T07:00:20.021Z,94.10
2022-11-26T07:02:43.693Z,95.72
2022-11-26T07:05:07.489Z,83.82
2022-11-26T07:07:31.103Z,106.65
2022-11-26T07:09:54.615Z,92.30
2022-11-26T07:12:18.355Z,85.93
2022-11-26T07:14:42.124Z,87.25
2022-11-26T07:17:07.425Z,87.97
2022-11-26T07:19:31.135Z,100.28
2022-11-26T07:21:55.242Z,83.22
2022-11-26T07:24:18.768Z,70.65
2022-11-26T07:26:42.408Z,88.95
2022-11-26T07:29:06.353Z,80.55
2022-11-26T07:31:29.974Z,89.50
2022-11-26T07:33:54.947Z,88.68
2022-11-26T07:36:20.570Z,97.97
2022-11-26T07:38:44.315Z,90.45
2022-11-26T07:41:10.923Z,81.10
2022-11-26T07:43:36.263Z,80.10
2022-11-26T07:46:03.545Z,92.53
2022-11-26T07:48:27.097Z,103.07
2022-11-26T07:50:52.116Z,78.10
2022-11-26T07:53:15.680Z,69.38
2022-11-26T07:55:39.907Z,76.53
2022-11-26T07:58:03.665Z,85.75
2022-11-26T08:00:27.427Z,78.32
2022-11-26T08:02:51.013Z,74.22
2022-11-26T08:05:14.641Z,80.18
2022-11-26T08:07:39.662Z,79.95
2022-11-26T08:10:04.395Z,66.35
2022-11-26T08:12:28.280Z,63.70
2022-11-26T08:14:51.950Z,74.90
2022-11-26T08:17:15.529Z,65.97
2022-11-26T08:19:39.150Z,69.50
2022-11-26T08:22:02.754Z,63.67
2022-11-26T08:24:27.744Z,76.28
2022-11-26T08:26:51.526Z,65.05
2022-11-26T08:29:15.542Z,66.15
2022-11-26T08:31:45.179Z,66.22
2022-11-26T08:34:09.573Z,66.68
2022-11-26T08:36:33.580Z,59.47
2022-11-26T08:38:57.431Z,68.40
2022-11-26T08:41:22.408Z,69.75
2022-11-26T08:44:05.537Z,76.10
2022-11-26T08:46:29.719Z,64.75
2022-11-26T08:48:53.278Z,73.82
2022-11-26T08:51:17.397Z,70.22
2022-11-26T08:53:41.464Z,62.42
2022-11-26T08:56:07.845Z,66.20
2022-11-26T08:58:35.135Z,67.13
2022-11-26T09:00:58.747Z,59.63
2022-11-26T09:03:22.355Z,49.10
2022-11-26T09:05:45.968Z,61.05
2022-11-26T09:08:09.494Z,62.20
2022-11-26T09:10:33.086Z,67.63
2022-11-26T09:12:56.634Z,61.67
2022-11-26T09:15:21.696Z,57.58
2022-11-26T09:17:45.225Z,53.85
2022-11-26T09:20:10.569Z,55.80
2022-11-26T09:22:35.453Z,46.85
2022-11-26T09:24:59.038Z,51.08
2022-11-26T09:27:22.600Z,48.45
2022-11-26T09:29:46.208Z,50.20
2022-11-26T09:32:31.185Z,41.58
2022-11-26T09:34:54.732Z,31.33
2022-11-26T09:37:18.792Z,31.55
2022-11-26T09:39:42.422Z,36.38
2022-11-26T09:42:08.712Z,33.72
2022-11-26T09:45:02.473Z,37.53
2022-11-26T09:47:30.598Z,38.78
2022-11-26T09:50:02.989Z,41.28
2022-11-26T09:52:30.415Z,37.08
2022-11-26T09:55:05.773Z,47.60
2022-11-26T09:57:36.757Z,43.15
2022-11-26T10:00:25.995Z,27.60
2022-11-26T10:02:54.627Z,37.58
2022-11-26T10:05:21.289Z,37.67
2022-11-26T10:08:01.294Z,38.88
2022-11-26T10:10:32.727Z,34.88
2022-11-26T10:13:18.581Z,32.90
2022-11-26T10:15:56.257Z,41.63
2022-11-26T10:18:32.316Z,42.30
2022-11-26T10:21:13.836Z,34.72
2022-11-26T10:23:45.452Z,41.08
2022-11-26T10:26:15.386Z,38.53
2022-11-26T10:28:45.681Z,39.17
2022-11-26T10:31:20.969Z,35.65
2022-11-26T10:33:54.922Z,40.63
2022-11-26T10:36:26.198Z,42.50
2022-11-26T10:38:49.852Z,33.13
2022-11-26T10:41:13.488Z,42.00
2022-11-26T10:43:37.091Z,31.48
2022-11-26T10:46:00.672Z,32.47
2022-11-26T10:48:27.305Z,32.97
2022-11-26T10:51:07.283Z,34.25
2022-11-26T10:53:36.917Z,36.50
2022-11-26T10:56:02.485Z,36.85
2022-11-26T10:58:28.369Z,32.78
2022-11-26T11:00:59.874Z,40.85
2022-11-26T11:03:59.337Z,29.60
2022-11-26T11:06:29.431Z,37.58
2022-11-26T11:08:54.663Z,30.20
2022-11-26T11:11:22.868Z,38.28
2022-11-26T11:13:48.454Z,32.38
2022-11-26T11:16:13.381Z,32.08
2022-11-26T11:18:37.726Z,24.63
2022-11-26T11:21:03.720Z,25.70
2022-11-26T11:24:00.117Z,28.70
2022-11-26T11:26:20.697Z,28.60
2022-11-26T11:28:50.305Z,27.70
2022-11-26T11:31:16.673Z,16.98
2022-11-26T11:33:40.267Z,20.92
2022-11-26T11:36:10.438Z,23.98
2022-11-26T11:38:48.892Z,26.48
2022-11-26T11:41:23.120Z,25.45
2022-11-26T11:43:47.055Z,27.33
2022-11-26T11:46:30.821Z,24.67
2022-11-26T11:49:09.137Z,27.35
2022-11-26T11:51:42.145Z,27.13
2022-11-26T11:54:18.874Z,28.45
2022-11-26T11:56:48.053Z,24.63
2022-11-26T11:59:58.482Z,26.50
2022-11-26T12:02:56.127Z,32.72
2022-11-26T12:05:49.019Z,30.27
2022-11-26T12:08:26.088Z,32.78
2022-11-26T12:11:03.725Z,31.85
2022-11-26T12:13:28.175Z,31.67
2022-11-26T12:15:57.062Z,29.75
2022-11-26T12:18:27.418Z,26.75
2022-11-26T12:20:55.589Z,20.35
2022-11-26T12:23:30.049Z,26.77
2022-11-26T12:26:02.524Z,32.65
2022-11-26T12:28:29.408Z,22.55
2022-11-26T12:30:59.308Z,29.25
2022-11-26T12:33:31.031Z,33.97
2022-11-26T12:35:59.782Z,25.25
2022-11-26T12:38:28.631Z,28.55
2022-11-26T12:41:00.886Z,29.85
2022-11-26T12:43:34.572Z,27.42
2022-11-26T12:46:04.387Z,31.35
2022-11-26T12:48:39.950Z,30.13
2022-11-26T12:51:17.757Z,29.77
2022-11-26T12:53:51.091Z,30.42
2022-11-26T12:56:23.945Z,25.10
2022-11-26T12:59:03.523Z,31.52
2022-11-26T13:01:29.022Z,30.05
2022-11-26T13:04:08.409Z,32.42
2022-11-26T13:06:57.619Z,37.35
2022-11-26T13:09:40.418Z,41.17
2022-11-26T13:12:16.426Z,30.10
2022-11-26T13:14:48.188Z,29.70
2022-11-26T13:17:15.655Z,37.03
2022-11-26T13:19:43.956Z,36.33
2022-11-26T13:22:39.094Z,51.22
2022-11-26T13:25:31.191Z,45.90
2022-11-26T13:28:07.632Z,48.80
2022-11-26T13:30:42.265Z,42.50
2022-11-26T13:33:43.008Z,45.95
2022-11-26T13:36:31.577Z,42.17
2022-11-26T13:39:18.222Z,46.55
2022-11-26T13:42:04.966Z,47.10
2022-11-26T13:45:26.970Z,41.78
2022-11-26T13:47:54.975Z,48.70
2022-11-26T13:50:23.922Z,53.90
2022-11-26T13:52:53.332Z,39.55
2022-11-26T13:55:21.352Z,44.20
2022-11-26T13:57:49.189Z,48.08
2022-11-26T14:00:26.682Z,42.80
2022-11-26T14:02:50.584Z,45.58
2022-11-26T14:05:16.789Z,36.15
2022-11-26T14:07:40.612Z,49.47
2022-11-26T14:10:07.673Z,49.17
2022-11-26T14:13:19.850Z,46.45
2022-11-26T14:16:00.588Z,41.25
2022-11-26T14:19:00.633Z,40.63
2022-11-26T14:21:25.079Z,30.45
2022-11-26T14:23:50.932Z,39.47
2022-11-26T14:26:19.452Z,35.47
2022-11-26T14:28:43.147Z,42.42
2022-11-26T14:31:16.197Z,56.00
2022-11-26T14:33:44.997Z,47.42
2022-11-26T14:36:21.952Z,36.40
2022-11-26T14:38:45.626Z,48.20
2022-11-26T14:41:09.168Z,36.00
2022-11-26T14:43:32.893Z,43.05
2022-11-26T14:46:12.855Z,40.58
2022-11-26T14:48:45.270Z,29.98
2022-11-26T14:51:10.417Z,30.52
2022-11-26T14:53:36.116Z,38.92
2022-11-26T14:56:00.368Z,37.13
2022-11-26T14:58:32.683Z,40.50
2022-11-26T15:01:14.143Z,185.13
2022-11-26T15:03:39.221Z,102.32
2022-11-26T15:06:02.924Z,55.97
2022-11-26T15:08:28.448Z,60.95
2022-11-26T15:10:55.736Z,49.33
2022-11-26T15:13:26.193Z,49.28
2022-11-26T15:15:54.438Z,52.50
2022-11-26T15:18:20.086Z,52.35
2022-11-26T15:20:45.052Z,47.33
2022-11-26T15:23:17.904Z,49.72
2022-11-26T15:25:49.879Z,51.30
2022-11-26T15:28:20.410Z,53.85
2022-11-26T15:30:56.625Z,49.35
2022-11-26T15:33:20.681Z,50.50
2022-11-26T15:35:45.642Z,56.20
2022-11-26T15:38:14.369Z,61.92
2022-11-26T15:40:48.124Z,62.50
2022-11-26T15:43:26.004Z,53.78
2022-11-26T15:45:51.366Z,50.92
2022-11-26T15:48:50.517Z,52.78
2022-11-26T15:51:13.135Z,62.75
2022-11-26T15:53:39.964Z,63.92
2022-11-26T15:56:05.116Z,66.13
2022-11-26T15:58:33.112Z,67.60
2022-11-26T16:01:01.571Z,64.28
2022-11-26T16:03:43.198Z,59.13
2022-11-26T16:06:10.658Z,56.97
2022-11-26T16:08:34.562Z,70.00
2022-11-26T16:11:00.244Z,54.97
2022-11-26T16:13:29.060Z,66.55
2022-11-26T16:15:59.500Z,65.65
2022-11-26T16:18:27.515Z,64.15
2022-11-26T16:20:51.304Z,55.90
2022-11-26T16:23:24.745Z,57.53
2022-11-26T16:26:11.963Z,47.30
2022-11-26T16:28:35.755Z,61.80
2022-11-26T16:30:59.290Z,73.88
2022-11-26T16:33:22.883Z,65.47
2022-11-26T16:35:46.947Z,60.38
2022-11-26T16:38:21.959Z,68.00
2022-11-26T16:40:46.171Z,49.20
2022-11-26T16:43:09.688Z,83.43
2022-11-26T16:45:33.317Z,55.40
2022-11-26T16:47:57.240Z,52.70
2022-11-26T16:50:24.029Z,40.15
2022-11-26T16:52:48.246Z,56.22
2022-11-26T16:55:15.729Z,66.90
2022-11-26T16:57:39.812Z,68.00
2022-11-26T17:00:06.261Z,54.30
2022-11-26T17:02:30.022Z,100.78
2022-11-26T17:04:53.741Z,67.22
2022-11-26T17:07:20.601Z,123.60
2022-11-26T17:09:44.601Z,60.38
2022-11-26T17:12:17.262Z,60.80
2022-11-26T17:14:40.788Z,56.70
2022-11-26T17:17:04.462Z,58.40
2022-11-26T17:19:28.092Z,49.83
2022-11-26T17:21:51.600Z,53.60
2022-11-26T17:24:17.771Z,62.35
2022-11-26T17:26:45.906Z,67.38
2022-11-26T17:29:14.846Z,60.88
2022-11-26T17:31:38.645Z,60.35
2022-11-26T17:34:02.136Z,53.50
2022-11-26T17:36:25.772Z,58.50
2022-11-26T17:38:50.374Z,53.50
2022-11-26T17:41:14.591Z,69.72
2022-11-26T17:43:38.193Z,60.58
2022-11-26T17:46:03.899Z,62.13
2022-11-26T17:48:27.424Z,58.30
2022-11-26T17:50:50.957Z,62.17
2022-11-26T17:53:14.493Z,49.90
2022-11-26T17:55:38.064Z,54.30
2022-11-26T17:58:01.603Z,56.75
2022-11-26T18:00:28.222Z,57.28
2022-11-26T18:02:53.956Z,74.28
2022-11-26T18:05:18.069Z,69.57
2022-11-26T18:07:42.368Z,86.20
2022-11-26T18:10:08.223Z,64.50
2022-11-26T18:12:31.944Z,78.30
2022-11-26T18:14:56.154Z,73.10
2022-11-26T18:17:19.761Z,73.32
2022-11-26T18:19:44.976Z,86.22
2022-11-26T18:22:09.819Z,78.82
2022-11-26T18:24:33.957Z,74.72
2022-11-26T18:26:57.475Z,75.65
2022-11-26T18:29:21.044Z,180.35
2022-11-26T18:31:44.555Z,238.57
2022-11-26T18:34:08.850Z,114.97
2022-11-26T18:36:33.780Z,132.40
2022-11-26T18:38:57.939Z,93.78
2022-11-26T18:41:22.033Z,102.13
2022-11-26T18:43:45.814Z,96.20
2022-11-26T18:46:15.480Z,112.55
2022-11-26T18:48:40.965Z,85.18
2022-11-26T18:51:05.774Z,148.20
2022-11-26T18:53:31.083Z,111.45
2022-11-26T18:55:54.820Z,93.93
2022-11-26T18:58:18.701Z,87.35
2022-11-26T19:00:42.198Z,77.05
2022-11-26T19:03:05.917Z,85.28
2022-11-26T19:05:29.532Z,84.85
2022-11-26T19:07:53.141Z,90.72
2022-11-26T19:10:18.271Z,89.97
2022-11-26T19:12:41.850Z,84.97
2022-11-26T19:15:06.658Z,78.28
2022-11-26T19:17:30.227Z,87.07
2022-11-26T19:19:53.777Z,107.60
2022-11-26T19:22:17.378Z,123.20
2022-11-26T19:24:40.877Z,114.63
2022-11-26T19:27:06.081Z,93.68
2022-11-26T19:29:29.608Z,98.05
2022-11-26T19:31:53.499Z,96.10
2022-11-26T19:34:17.390Z,82.18
2022-11-26T19:36:41.044Z,83.65
2022-11-26T19:39:06.076Z,93.53
2022-11-26T19:41:30.568Z,94.45
2022-11-26T19:43:55.538Z,109.43
2022-11-26T19:46:22.685Z,101.13
2022-11-26T19:48:48.863Z,109.35
2022-11-26T19:51:14.221Z,92.40
2022-11-26T19:53:38.803Z,78.68
2022-11-26T19:56:06.773Z,87.80
2022-11-26T19:58:33.893Z,82.00
2022-11-26T20:00:58.979Z,82.80
2022-11-26T20:03:23.006Z,87.43
2022-11-26T20:05:46.763Z,68.22
2022-11-26T20:08:11.128Z,74.50
2022-11-26T20:10:34.780Z,67.20
2022-11-26T20:12:58.309Z,86.78
2022-11-26T20:15:21.888Z,79.13
2022-11-26T20:17:47.205Z,84.72
2022-11-26T20:20:11.951Z,89.75
2022-11-26T20:22:37.470Z,75.18
2022-11-26T20:25:01.099Z,83.43
2022-11-26T20:27:25.112Z,67.47
2022-11-26T20:29:48.819Z,74.35
2022-11-26T20:32:14.028Z,72.88
2022-11-26T20:34:38.998Z,58.42
2022-11-26T20:37:03.464Z,83.60
2022-11-26T20:39:28.729Z,75.32
2022-11-26T20:41:52.700Z,69.45
2022-11-26T20:44:16.495Z,58.70
2022-11-26T20:46:40.844Z,91.97
2022-11-26T20:49:05.796Z,78.18
2022-11-26T20:51:30.694Z,61.75
2022-11-26T20:53:58.186Z,81.93
2022-11-26T20:56:23.406Z,79.40
2022-11-26T20:58:47.073Z,79.80
2022-11-26T21:01:17.338Z,84.43
2022-11-26T21:03:40.939Z,90.00
2022-11-26T21:06:05.044Z,82.85
2022-11-26T21:08:30.139Z,88.07
2022-11-26T21:10:53.664Z,87.40
2022-11-26T21:13:19.963Z,78.40
2022-11-26T21:15:45.092Z,86.25
2022-11-26T21:18:09.219Z,76.70
2022-11-26T21:20:36.223Z,79.55
2022-11-26T21:23:00.015Z,75.68
2022-11-26T21:25:25.121Z,80.82
2022-11-26T21:27:52.913Z,78.18
2022-11-26T21:30:19.338Z,78.05
2022-11-26T21:32:42.934Z,77.63
2022-11-26T21:35:07.379Z,87.82
2022-11-26T21:37:30.932Z,85.93
2022-11-26T21:39:54.480Z,98.07
2022-11-26T21:42:19.499Z,92.55
2022-11-26T21:44:43.066Z,86.72
2022-11-26T21:47:06.619Z,95.00
2022-11-26T21:49:30.934Z,93.07
2022-11-26T21:51:54.469Z,86.85
2022-11-26T21:54:18.002Z,90.22
2022-11-26T21:56:41.992Z,98.63
2022-11-26T21:59:07.015Z,106.72
2022-11-26T22:01:32.979Z,110.95
2022-11-26T22:04:00.111Z,104.75
2022-11-26T22:06:25.126Z,115.68
2022-11-26T22:08:49.140Z,110.78
2022-11-26T22:11:14.373Z,97.45
2022-11-26T22:13:38.252Z,100.75
2022-11-26T22:16:03.212Z,111.60
2022-11-26T22:18:26.798Z,116.88
2022-11-26T22:20:54.166Z,121.25
2022-11-26T22:23:17.673Z,127.72
2022-11-26T22:25:41.201Z,137.80
2022-11-26T22:28:04.863Z,115.90
2022-11-26T22:30:28.418Z,117.63
2022-11-26T22:32:53.438Z,107.68
2022-11-26T22:35:17.139Z,142.23
2022-11-26T22:37:40.634Z,116.85
2022-11-26T22:40:04.830Z,124.95
2022-11-26T22:42:28.346Z,106.47
2022-11-26T22:44:51.961Z,126.22
2022-11-26T22:47:15.480Z,124.68
2022-11-26T22:49:40.732Z,98.85
2022-11-26T22:52:04.465Z,119.32
2022-11-26T22:54:27.988Z,106.70
2022-11-26T22:56:51.589Z,94.38
2022-11-26T22:59:16.712Z,99.85
2022-11-26T23:01:40.282Z,106.13
2022-11-26T23:04:07.905Z,106.22
2022-11-26T23:06:35.990Z,91.30
2022-11-26T23:09:00.580Z,91.82
2022-11-26T23:11:30.140Z,86.47
2022-11-26T23:13:54.418Z,95.55
2022-11-26T23:16:19.537Z,118.18
2022-11-26T23:18:43.592Z,107.25
2022-11-26T23:21:11.392Z,93.45
2022-11-26T23:23:39.091Z,91.70
2022-11-26T23:26:03.698Z,98.00
2022-11-26T23:28:27.273Z,90.68
2022-11-26T23:30:51.139Z,79.05
2022-11-26T23:33:14.672Z,90.07
2022-11-26T23:35:38.289Z,96.40
2022-11-26T23:38:01.865Z,92.25
2022-11-26T23:40:26.849Z,100.10
2022-11-26T23:42:50.397Z,89.72
2022-11-26T23:45:13.942Z,93.35
2022-11-26T23:47:39.807Z,98.07
2022-11-26T23:50:03.358Z,91.30
2022-11-26T23:52:26.953Z,85.57
2022-11-26T23:54:50.464Z,102.88
2022-11-26T23:57:15.414Z,94.63
2022-11-26T23:59:39.077Z,92.40
